Time;durP1;ratioP1;P1;durP2;ratioP2;P2;SDS_P1;SDS_P2;PMS_P1;PMS_P2;Temp;Humidity;BMP_temperature;BMP_pressure;BME280_temperature;BME280_humidity;BME280_pressure;Samples;Min_cycle;Max_cycle;Signal;HPM_P1;HPM_P2
2023/07/05 01:31:15;;;;;;;12.70;7.82;;;;;;;;;;5866033;24;20029;-74
2023/07/05 01:38:40;;;;;;;16.65;8.73;;;;;;;;;;5860323;24;20029;-75
2023/07/05 01:57:50;;;;;;;;;;;;;;;;;;;;;
2023/07/05 02:36:03;;;;;;;20.60;8.13;;;;;;;;;;6060649;23;20029;-75
2023/07/05 02:43:04;;;;;;;15.52;8.40;;;;;;;;;;6060786;23;20073;-75
2023/07/05 02:46:46;;;;;;;;;;;;;;;;;;;;;
2023/07/05 03:13:33;;;;;;;24.00;10.00;;;;;;;;;;5964383;24;20116;-76
2023/07/05 03:28:39;;;;;;;;;;;;;;;;;;;;;
2023/07/05 03:43:26;;;;;;;16.15;8.38;;;;;;;;;;5919185;24;20028;-74
2023/07/05 03:47:00;;;;;;;;;;;;;;;;;;;;;
2023/07/05 03:54:10;;;;;;;17.25;8.43;;;;;;;;;;5935327;24;20059;-74
2023/07/05 04:05:21;;;;;;;12.27;8.13;;;;;;;;;;5816424;24;20047;-76
2023/07/05 04:20:06;;;;;;;14.63;8.95;;;;;;;;;;5992614;23;20486;-75
2023/07/05 04:44:45;;;;;;;14.48;6.97;;;;;;;;;;6062790;23;20029;-76
2023/07/05 04:59:43;;;;;;;11.90;6.85;;;;;;;;;;6062082;23;20479;-73
2023/07/05 05:03:10;;;;;;;;;;;;;;;;;;;;;
2023/07/05 05:06:10;;;;;;;12.40;7.55;;;;;;;;;;6046391;23;20034;-77
2023/07/05 05:08:35;;;;;;;12.93;6.93;;;;;;;;;;6061503;23;20015;-76
2023/07/05 05:31:04;;;;;;;9.63;7.32;;;;;;;;;;6062647;23;20101;-74
2023/07/05 05:37:01;;;;;;;11.82;8.20;;;;;;;;;;5920247;24;20028;-74
2023/07/05 05:40:22;;;;;;;13.63;8.05;;;;;;;;;;5919670;23;20556;-74
2023/07/05 05:43:50;;;;;;;;;;;;;;;;;;;;;
2023/07/05 05:51:43;;;;;;;15.75;7.70;;;;;;;;;;5897029;23;20060;-74
2023/07/05 05:55:05;;;;;;;19.30;8.27;;;;;;;;;;5893540;24;20110;-76
2023/07/05 06:05:24;;;;;;;14.75;8.27;;;;;;;;;;5972683;23;20080;-74
2023/07/05 06:08:24;;;;;;;12.63;7.30;;;;;;;;;;5975045;23;20024;-74
2023/07/05 06:18:50;;;;;;;20.92;8.70;;;;;;;;;;5941909;24;20027;-74
2023/07/05 06:28:55;;;;;;;15.02;7.43;;;;;;;;;;6039985;23;19958;-74
2023/07/05 06:31:46;;;;;;;16.75;8.45;;;;;;;;;;5999632;23;20400;-74
2023/07/05 06:34:56;;;;;;;16.83;7.95;;;;;;;;;;6132211;23;20050;-73
2023/07/05 06:42:30;;;;;;;16.65;7.70;;;;;;;;;;6152087;23;20037;-74
2023/07/05 06:46:05;;;;;;;16.25;7.15;;;;;;;;;;6142585;23;20462;-73
2023/07/05 06:57:05;;;;;;;13.80;7.13;;;;;;;;;;6151939;23;20549;-76
2023/07/05 07:04:06;;;;;;;17.45;8.27;;;;;;;;;;6035498;23;20027;-74
2023/07/05 07:08:15;;;;;;;12.07;8.02;;;;;;;;;;5932351;24;20131;-75
2023/07/05 07:11:35;;;;;;;17.30;8.27;;;;;;;;;;5944935;23;20482;-74
2023/07/05 07:14:21;;;;;;;13.70;7.93;;;;;;;;;;5979561;23;20475;-75
2023/07/05 07:17:20;;;;;;;24.08;7.72;;;;;;;;;;5960129;24;20064;-75
2023/07/05 07:20:25;;;;;;;9.85;6.75;;;;;;;;;;5941465;24;20029;-74
2023/07/05 07:34:05;;;;;;;14.20;7.57;;;;;;;;;;6119444;23;20594;-74
2023/07/05 07:37:07;;;;;;;9.48;6.82;;;;;;;;;;6177781;23;20351;-73
2023/07/05 07:40:43;;;;;;;11.57;7.57;;;;;;;;;;6065625;23;20014;-73
2023/07/05 07:43:56;;;;;;;12.88;7.25;;;;;;;;;;6072775;23;20452;-73
2023/07/05 07:47:25;;;;;;;;;;;;;;;;;;;;;
2023/07/05 07:51:12;;;;;;;12.80;7.45;;;;;;;;;;6139085;23;20029;-73
2023/07/05 07:53:56;;;;;;;12.75;8.05;;;;;;;;;;6093912;23;20364;-74
2023/07/05 07:56:35;;;;;;;12.80;7.25;;;;;;;;;;6188529;23;20150;-75
2023/07/05 07:59:47;;;;;;;11.75;7.63;;;;;;;;;;6091080;23;20014;-74
2023/07/05 08:06:06;;;;;;;16.73;8.55;;;;;;;;;;6031084;23;20531;-73
2023/07/05 08:08:41;;;;;;;13.30;7.82;;;;;;;;;;6031752;23;20019;-66
2023/07/05 08:11:11;;;;;;;14.60;7.53;;;;;;;;;;6094852;23;20014;-67
2023/07/05 08:13:40;;;;;;;11.07;7.80;;;;;;;;;;6118914;22;20040;-68
2023/07/05 08:16:07;;;;;;;10.52;7.28;;;;;;;;;;6118730;23;20006;-67
2023/07/05 08:18:32;;;;;;;9.00;6.97;;;;;;;;;;6118617;23;20013;-67
2023/07/05 08:20:59;;;;;;;11.80;7.15;;;;;;;;;;6118990;23;20392;-67
2023/07/05 08:23:25;;;;;;;8.98;7.30;;;;;;;;;;6119017;23;20687;-68
2023/07/05 08:25:55;;;;;;;11.30;7.65;;;;;;;;;;6118596;23;20002;-68
2023/07/05 08:28:25;;;;;;;12.85;6.88;;;;;;;;;;6118736;23;20013;-67
2023/07/05 08:30:53;;;;;;;11.15;7.50;;;;;;;;;;6118779;23;20010;-67
2023/07/05 08:33:21;;;;;;;11.65;7.85;;;;;;;;;;6118670;23;20009;-67
2023/07/05 08:35:47;;;;;;;11.85;7.20;;;;;;;;;;6118002;23;20010;-66
2023/07/05 08:38:18;;;;;;;12.10;7.72;;;;;;;;;;6118532;23;20055;-67
2023/07/05 08:40:49;;;;;;;12.20;7.65;;;;;;;;;;6118647;23;20440;-68
2023/07/05 08:44:06;;;;;;;11.35;5.97;;;;;;;;;;6118759;23;20095;-67
2023/07/05 08:46:32;;;;;;;11.07;6.65;;;;;;;;;;6120211;23;20010;-68
2023/07/05 08:49:03;;;;;;;11.00;6.80;;;;;;;;;;6119210;23;20010;-66
2023/07/05 08:51:30;;;;;;;11.75;6.75;;;;;;;;;;6118675;23;20372;-67
2023/07/05 08:53:59;;;;;;;13.45;6.95;;;;;;;;;;6118423;23;20018;-67
2023/07/05 08:56:32;;;;;;;10.18;6.40;;;;;;;;;;6119150;23;20022;-67
2023/07/05 08:59:38;;;;;;;10.88;6.57;;;;;;;;;;6120393;23;20013;-67
2023/07/05 09:02:09;;;;;;;10.18;7.00;;;;;;;;;;6120128;23;20014;-68
2023/07/05 09:04:35;;;;;;;8.80;6.90;;;;;;;;;;6120308;23;20013;-67
2023/07/05 09:07:43;;;;;;;11.43;6.35;;;;;;;;;;6119684;23;20380;-69
2023/07/05 09:10:30;;;;;;;14.65;7.32;;;;;;;;;;6180629;23;20013;-68
2023/07/05 09:13:15;;;;;;;12.13;7.32;;;;;;;;;;6147671;23;20018;-67
2023/07/05 09:15:53;;;;;;;11.30;7.07;;;;;;;;;;6149121;23;20075;-67
2023/07/05 09:18:36;;;;;;;8.95;6.78;;;;;;;;;;6148969;23;20329;-68
2023/07/05 09:21:41;;;;;;;13.13;6.70;;;;;;;;;;6149362;23;20016;-67
2023/07/05 09:24:06;;;;;;;8.52;6.60;;;;;;;;;;6157855;23;20092;-68
2023/07/05 09:26:37;;;;;;;10.55;6.65;;;;;;;;;;6148995;23;20040;-68
2023/07/05 09:29:27;;;;;;;8.95;7.15;;;;;;;;;;6149631;23;20036;-68
2023/07/05 09:31:54;;;;;;;11.77;6.90;;;;;;;;;;6149213;23;20040;-67
2023/07/05 09:34:39;;;;;;;8.52;6.55;;;;;;;;;;6148354;22;20006;-68
2023/07/05 09:37:15;;;;;;;11.07;6.50;;;;;;;;;;6150141;23;20014;-68
2023/07/05 09:40:09;;;;;;;11.57;6.32;;;;;;;;;;6150688;23;20347;-68
2023/07/05 09:42:40;;;;;;;8.70;6.63;;;;;;;;;;6150199;22;20014;-68
2023/07/05 09:45:14;;;;;;;10.98;6.13;;;;;;;;;;6149780;23;20006;-68
2023/07/05 09:47:42;;;;;;;9.52;6.95;;;;;;;;;;6149320;23;20435;-68
2023/07/05 09:50:16;;;;;;;14.23;6.72;;;;;;;;;;6150196;23;20017;-67
2023/07/05 09:52:50;;;;;;;8.93;6.63;;;;;;;;;;6149943;23;20447;-67
2023/07/05 09:55:17;;;;;;;10.23;6.60;;;;;;;;;;6099609;23;20021;-68
2023/07/05 09:57:42;;;;;;;9.57;7.30;;;;;;;;;;6149164;23;20012;-68
2023/07/05 10:00:24;;;;;;;8.13;6.88;;;;;;;;;;6147829;23;20017;-68
2023/07/05 10:02:53;;;;;;;9.27;6.87;;;;;;;;;;6149656;23;20085;-68
2023/07/05 10:05:26;;;;;;;10.05;7.18;;;;;;;;;;6149412;23;20015;-66
2023/07/05 10:07:58;;;;;;;8.35;6.57;;;;;;;;;;6149079;23;20452;-69
2023/07/05 10:10:27;;;;;;;11.00;7.80;;;;;;;;;;6149195;23;20009;-70
2023/07/05 10:13:11;;;;;;;8.80;7.00;;;;;;;;;;6149106;23;20016;-68
2023/07/05 10:15:49;;;;;;;8.82;6.95;;;;;;;;;;6149381;23;20287;-71
2023/07/05 10:18:32;;;;;;;10.35;6.38;;;;;;;;;;6149187;23;20017;-68
2023/07/05 10:21:02;;;;;;;11.02;7.40;;;;;;;;;;6149228;23;20002;-69
2023/07/05 10:23:30;;;;;;;10.90;6.72;;;;;;;;;;6148951;23;20082;-68
2023/07/05 10:26:05;;;;;;;10.23;6.00;;;;;;;;;;6148179;23;20424;-69
2023/07/05 10:28:35;;;;;;;9.02;6.03;;;;;;;;;;6148999;23;20339;-69
2023/07/05 10:31:05;;;;;;;11.10;7.63;;;;;;;;;;6148348;23;20014;-69
2023/07/05 10:33:41;;;;;;;7.90;6.53;;;;;;;;;;6149256;23;20010;-69
2023/07/05 10:36:09;;;;;;;9.48;6.60;;;;;;;;;;6148139;23;20009;-68
2023/07/05 10:38:41;;;;;;;9.95;6.22;;;;;;;;;;6149759;23;20010;-69
2023/07/05 10:41:35;;;;;;;10.10;6.45;;;;;;;;;;6149740;23;20394;-68
2023/07/05 10:44:13;;;;;;;12.52;7.13;;;;;;;;;;6150177;23;20010;-69
2023/07/05 10:46:39;;;;;;;9.18;7.32;;;;;;;;;;6149664;23;20010;-67
2023/07/05 10:49:09;;;;;;;9.00;6.35;;;;;;;;;;6149585;23;20284;-69
2023/07/05 10:51:40;;;;;;;7.53;6.60;;;;;;;;;;6149019;23;20317;-69
2023/07/05 10:54:14;;;;;;;12.77;7.30;;;;;;;;;;6149619;23;20017;-69
2023/07/05 10:56:42;;;;;;;10.57;8.40;;;;;;;;;;6149762;23;20016;-69
2023/07/05 10:59:43;;;;;;;9.90;6.70;;;;;;;;;;6149825;23;20068;-68
2023/07/05 11:02:18;;;;;;;8.93;6.55;;;;;;;;;;6149592;23;20021;-69
2023/07/05 11:04:47;;;;;;;10.48;8.20;;;;;;;;;;6149345;23;20033;-69
2023/07/05 11:07:14;;;;;;;9.13;5.78;;;;;;;;;;6149180;23;20009;-69
2023/07/05 11:09:41;;;;;;;9.10;6.50;;;;;;;;;;6149577;23;20078;-68
2023/07/05 11:12:22;;;;;;;8.38;7.03;;;;;;;;;;6148953;23;20017;-69
2023/07/05 11:14:48;;;;;;;13.23;6.78;;;;;;;;;;6148583;23;20020;-68
2023/07/05 11:17:37;;;;;;;9.25;7.68;;;;;;;;;;6147285;23;20088;-68
2023/07/05 11:20:35;;;;;;;9.25;7.05;;;;;;;;;;6148630;23;20010;-68
2023/07/05 11:23:01;;;;;;;11.52;6.40;;;;;;;;;;6146759;23;20452;-68
2023/07/05 11:26:05;;;;;;;13.32;8.82;;;;;;;;;;6148401;23;20002;-68
2023/07/05 11:28:37;;;;;;;9.02;6.75;;;;;;;;;;6179340;23;20511;-68
2023/07/05 11:31:04;;;;;;;12.20;6.78;;;;;;;;;;6179815;23;20017;-67
2023/07/05 11:33:30;;;;;;;10.30;6.65;;;;;;;;;;6161903;23;20009;-68
2023/07/05 11:36:08;;;;;;;9.32;7.05;;;;;;;;;;6146665;23;20024;-69
2023/07/05 11:38:37;;;;;;;7.68;6.07;;;;;;;;;;6147122;23;20446;-69
2023/07/05 11:41:05;;;;;;;8.65;6.95;;;;;;;;;;6148267;23;20072;-69
2023/07/05 11:43:53;;;;;;;7.78;6.03;;;;;;;;;;6148062;23;20072;-68
2023/07/05 11:46:41;;;;;;;9.85;6.63;;;;;;;;;;6147388;23;20067;-69
2023/07/05 11:49:38;;;;;;;11.57;7.63;;;;;;;;;;6148431;23;20449;-69
2023/07/05 11:52:15;;;;;;;9.23;7.72;;;;;;;;;;6148055;22;20055;-70
2023/07/05 11:55:04;;;;;;;8.88;7.43;;;;;;;;;;6148727;22;20505;-70
2023/07/05 11:57:52;;;;;;;11.25;7.38;;;;;;;;;;6147419;23;20013;-68
2023/07/05 12:00:29;;;;;;;11.02;8.00;;;;;;;;;;6145934;23;20057;-69
2023/07/05 12:02:59;;;;;;;10.18;6.90;;;;;;;;;;6148155;23;20022;-69
2023/07/05 12:05:31;;;;;;;7.82;6.68;;;;;;;;;;6146528;22;20021;-70
2023/07/05 12:08:21;;;;;;;8.48;7.03;;;;;;;;;;6147305;23;20340;-68
2023/07/05 12:11:00;;;;;;;9.02;7.32;;;;;;;;;;6148320;23;20033;-70
2023/07/05 12:13:35;;;;;;;10.43;7.20;;;;;;;;;;6147804;23;20386;-68
2023/07/05 12:16:05;;;;;;;8.20;6.88;;;;;;;;;;6147226;22;20017;-69
2023/07/05 12:18:32;;;;;;;8.77;7.20;;;;;;;;;;6148015;22;20443;-68
2023/07/05 12:20:58;;;;;;;9.40;7.07;;;;;;;;;;6147013;23;20006;-69
2023/07/05 12:23:29;;;;;;;10.98;7.03;;;;;;;;;;6146354;23;19998;-69
2023/07/05 12:26:02;;;;;;;10.05;6.90;;;;;;;;;;6144010;23;20355;-69
2023/07/05 12:28:31;;;;;;;9.13;7.32;;;;;;;;;;6120765;23;20347;-68
2023/07/05 12:31:06;;;;;;;8.38;6.75;;;;;;;;;;6149356;22;20005;-67
2023/07/05 12:33:35;;;;;;;7.55;6.70;;;;;;;;;;6149541;23;20013;-68
2023/07/05 12:36:06;;;;;;;11.45;7.47;;;;;;;;;;6147688;23;20013;-68
2023/07/05 12:38:33;;;;;;;8.73;6.90;;;;;;;;;;6148579;23;20013;-68
2023/07/05 12:40:59;;;;;;;14.18;7.43;;;;;;;;;;6149277;22;20036;-68
2023/07/05 12:43:28;;;;;;;8.70;6.93;;;;;;;;;;6122054;23;20363;-67
2023/07/05 12:46:06;;;;;;;9.10;6.70;;;;;;;;;;6148542;23;20343;-68
2023/07/05 12:48:31;;;;;;;8.40;7.07;;;;;;;;;;6149209;23;20112;-69
2023/07/05 12:51:19;;;;;;;8.63;7.20;;;;;;;;;;6147900;23;20036;-69
2023/07/05 12:53:49;;;;;;;7.72;6.75;;;;;;;;;;6145863;23;20019;-67
2023/07/05 12:56:18;;;;;;;7.60;6.70;;;;;;;;;;6146173;23;20009;-68
2023/07/05 12:58:59;;;;;;;9.00;6.95;;;;;;;;;;6148145;23;20390;-69
2023/07/05 13:01:34;;;;;;;11.45;7.13;;;;;;;;;;6147627;23;20013;-69
2023/07/05 13:04:00;;;;;;;8.00;6.68;;;;;;;;;;6147499;23;20335;-69
2023/07/05 13:06:26;;;;;;;9.43;7.68;;;;;;;;;;6149504;22;20336;-70
2023/07/05 13:08:55;;;;;;;9.52;7.00;;;;;;;;;;6148093;23;20013;-67
2023/07/05 13:11:26;;;;;;;8.30;6.53;;;;;;;;;;6149557;23;20438;-68
2023/07/05 13:14:07;;;;;;;8.82;6.70;;;;;;;;;;6149804;22;20513;-70
2023/07/05 13:16:50;;;;;;;8.57;6.40;;;;;;;;;;6149259;23;20010;-69
2023/07/05 13:19:16;;;;;;;8.82;6.65;;;;;;;;;;6148389;23;20053;-69
2023/07/05 13:21:44;;;;;;;9.02;6.63;;;;;;;;;;6147590;23;20004;-68
2023/07/05 13:24:35;;;;;;;10.25;7.03;;;;;;;;;;6147846;22;20017;-67
2023/07/05 13:27:02;;;;;;;8.57;7.00;;;;;;;;;;6147686;23;20005;-69
2023/07/05 13:29:35;;;;;;;8.52;6.22;;;;;;;;;;6148724;23;20387;-68
2023/07/05 13:32:01;;;;;;;9.15;6.28;;;;;;;;;;6147845;23;20013;-69
2023/07/05 13:34:28;;;;;;;8.38;6.80;;;;;;;;;;6148324;23;20055;-68
2023/07/05 13:37:12;;;;;;;11.15;6.97;;;;;;;;;;6147490;23;20006;-68
2023/07/05 13:39:38;;;;;;;10.23;6.82;;;;;;;;;;6147624;23;20005;-68
2023/07/05 13:42:04;;;;;;;7.45;6.35;;;;;;;;;;6150317;23;20005;-68
2023/07/05 13:44:30;;;;;;;9.07;6.47;;;;;;;;;;6149052;22;20116;-69
2023/07/05 13:46:56;;;;;;;8.43;6.35;;;;;;;;;;6148653;22;20335;-68
2023/07/05 13:49:24;;;;;;;9.07;7.03;;;;;;;;;;6149834;23;20036;-69
2023/07/05 13:51:54;;;;;;;7.70;5.93;;;;;;;;;;6149721;23;20085;-70
2023/07/05 13:54:20;;;;;;;9.68;6.00;;;;;;;;;;6150291;22;20082;-68
2023/07/05 13:56:46;;;;;;;8.20;6.20;;;;;;;;;;6148973;22;20017;-68
2023/07/05 13:59:17;;;;;;;7.35;5.80;;;;;;;;;;6149193;23;20017;-68
2023/07/05 14:01:43;;;;;;;7.32;6.15;;;;;;;;;;6150065;23;20005;-69
2023/07/05 14:04:11;;;;;;;7.72;6.18;;;;;;;;;;6123927;23;20362;-67
2023/07/05 14:06:37;;;;;;;8.68;6.63;;;;;;;;;;6149769;23;20036;-68
2023/07/05 14:09:03;;;;;;;10.25;6.00;;;;;;;;;;6149882;22;20432;-67
2023/07/05 14:11:34;;;;;;;8.85;6.35;;;;;;;;;;6148809;23;20013;-69
2023/07/05 14:14:00;;;;;;;8.48;6.63;;;;;;;;;;6146608;23;20057;-69
2023/07/05 14:16:26;;;;;;;7.47;6.05;;;;;;;;;;6147015;23;20532;-68
2023/07/05 14:18:52;;;;;;;10.63;6.50;;;;;;;;;;6147879;23;20039;-68
2023/07/05 14:21:37;;;;;;;10.80;6.50;;;;;;;;;;6148571;23;20221;-69
2023/07/05 14:24:10;;;;;;;10.27;6.28;;;;;;;;;;6146773;23;20431;-68
2023/07/05 14:26:39;;;;;;;8.98;6.70;;;;;;;;;;6147618;23;20059;-69
2023/07/05 14:29:06;;;;;;;9.18;7.18;;;;;;;;;;6149432;23;20400;-67
2023/07/05 14:31:32;;;;;;;7.78;6.22;;;;;;;;;;6149724;22;20426;-68
2023/07/05 14:33:58;;;;;;;11.73;6.80;;;;;;;;;;6148288;23;20394;-67
2023/07/05 14:36:26;;;;;;;10.80;6.97;;;;;;;;;;6146267;23;20640;-68
2023/07/05 14:38:52;;;;;;;19.38;6.28;;;;;;;;;;6146827;23;20352;-68
2023/07/05 14:41:23;;;;;;;14.00;6.55;;;;;;;;;;6148220;23;20136;-68
2023/07/05 14:43:50;;;;;;;11.93;5.75;;;;;;;;;;6148674;22;20017;-68
2023/07/05 14:46:16;;;;;;;11.40;5.80;;;;;;;;;;6148780;23;20096;-68
2023/07/05 14:48:41;;;;;;;17.05;5.65;;;;;;;;;;6148897;23;20083;-69
2023/07/05 14:51:14;;;;;;;10.43;5.50;;;;;;;;;;6147251;23;20010;-69
2023/07/05 14:53:42;;;;;;;;;;;;;;;;;;6149539;23;20394;-69
2023/07/05 14:56:08;;;;;;;10.65;5.00;;;;;;;;;;6147054;23;19954;-69
2023/07/05 14:58:34;;;;;;;8.45;5.10;;;;;;;;;;6149065;23;20393;-68
2023/07/05 15:01:01;;;;;;;12.50;5.13;;;;;;;;;;6146497;23;20452;-68
2023/07/05 15:03:31;;;;;;;9.23;4.57;;;;;;;;;;6147638;23;20301;-68
2023/07/05 15:06:02;;;;;;;9.77;5.20;;;;;;;;;;6147345;23;20009;-69
2023/07/05 15:08:30;;;;;;;8.60;5.15;;;;;;;;;;6146840;23;20059;-69
2023/07/05 15:10:55;;;;;;;11.57;6.00;;;;;;;;;;6144338;23;20530;-69
2023/07/05 15:13:27;;;;;;;10.63;5.50;;;;;;;;;;6146984;23;20444;-69
2023/07/05 15:15:52;;;;;;;9.32;5.15;;;;;;;;;;6147030;23;20578;-71
2023/07/05 15:18:18;;;;;;;7.75;5.03;;;;;;;;;;6147508;23;20040;-70
2023/07/05 15:20:44;;;;;;;7.40;4.95;;;;;;;;;;6148993;23;20070;-69
2023/07/05 15:23:10;;;;;;;8.48;5.60;;;;;;;;;;6148783;23;20001;-68
2023/07/05 15:25:36;;;;;;;8.50;5.35;;;;;;;;;;6146086;23;20033;-69
2023/07/05 15:28:05;;;;;;;7.95;5.10;;;;;;;;;;6146268;23;20037;-69
2023/07/05 15:30:31;;;;;;;9.07;5.25;;;;;;;;;;6147275;22;20451;-70
2023/07/05 15:32:57;;;;;;;8.57;5.68;;;;;;;;;;6148872;23;20005;-69
2023/07/05 15:35:25;;;;;;;9.45;6.45;;;;;;;;;;6149472;23;20013;-69
2023/07/05 15:37:51;;;;;;;12.88;6.18;;;;;;;;;;6146760;23;20481;-70
2023/07/05 15:40:18;;;;;;;10.30;5.78;;;;;;;;;;6148008;23;20013;-69
2023/07/05 15:42:45;;;;;;;9.93;6.05;;;;;;;;;;6147491;23;20008;-69
2023/07/05 15:45:12;;;;;;;8.35;5.65;;;;;;;;;;6144336;22;20029;-69
2023/07/05 15:47:38;;;;;;;8.38;5.55;;;;;;;;;;6147771;23;20100;-70
2023/07/05 15:50:06;;;;;;;9.95;5.65;;;;;;;;;;6147807;23;20431;-69
2023/07/05 15:52:34;;;;;;;10.07;5.60;;;;;;;;;;6148424;23;20009;-70
2023/07/05 15:55:00;;;;;;;8.13;5.68;;;;;;;;;;6147648;23;20006;-69
2023/07/05 15:57:26;;;;;;;7.90;5.55;;;;;;;;;;6147757;23;20496;-69
2023/07/05 15:59:58;;;;;;;11.38;5.82;;;;;;;;;;6144474;23;20065;-69
2023/07/05 16:02:27;;;;;;;9.63;5.90;;;;;;;;;;6145642;23;20006;-69
2023/07/05 16:04:53;;;;;;;9.70;5.97;;;;;;;;;;6120775;23;20007;-69
2023/07/05 16:07:19;;;;;;;9.02;6.07;;;;;;;;;;6146778;23;20024;-70
2023/07/05 16:09:44;;;;;;;10.90;5.95;;;;;;;;;;6147126;23;20363;-69
2023/07/05 16:12:10;;;;;;;8.25;6.00;;;;;;;;;;6148292;23;20017;-69
2023/07/05 16:14:36;;;;;;;12.65;6.18;;;;;;;;;;6148177;23;20012;-68
2023/07/05 16:17:03;;;;;;;8.55;5.82;;;;;;;;;;6148329;23;20006;-69
2023/07/05 16:19:28;;;;;;;9.35;5.40;;;;;;;;;;6149305;23;20025;-70
2023/07/05 16:21:54;;;;;;;9.98;6.25;;;;;;;;;;6148354;23;20013;-68
2023/07/05 16:24:20;;;;;;;12.02;6.03;;;;;;;;;;6169185;23;20017;-69
2023/07/05 16:26:46;;;;;;;8.95;6.07;;;;;;;;;;6145640;23;20021;-70
2023/07/05 16:29:13;;;;;;;7.90;5.20;;;;;;;;;;6146755;23;19998;-70
2023/07/05 16:31:39;;;;;;;11.20;6.30;;;;;;;;;;6146381;23;20017;-69
2023/07/05 16:34:05;;;;;;;9.15;6.13;;;;;;;;;;6146419;23;20050;-69
2023/07/05 16:36:31;;;;;;;11.73;6.68;;;;;;;;;;6145887;23;20465;-70
2023/07/05 16:39:00;;;;;;;10.98;6.10;;;;;;;;;;6144928;23;20009;-70
2023/07/05 16:41:27;;;;;;;11.43;6.15;;;;;;;;;;6146825;23;20018;-68
2023/07/05 16:43:54;;;;;;;9.13;5.60;;;;;;;;;;6146753;23;20048;-69
2023/07/05 16:46:22;;;;;;;8.45;5.47;;;;;;;;;;6144199;23;20024;-68
2023/07/05 16:48:48;;;;;;;12.23;6.35;;;;;;;;;;6141661;23;20388;-69
2023/07/05 16:51:19;;;;;;;9.18;5.47;;;;;;;;;;6145847;23;20101;-70
2023/07/05 16:53:45;;;;;;;10.48;6.90;;;;;;;;;;6145421;23;20009;-70
2023/07/05 16:56:11;;;;;;;10.15;6.50;;;;;;;;;;6145704;23;20030;-67
2023/07/05 16:58:38;;;;;;;10.25;6.38;;;;;;;;;;6145579;23;20027;-69
2023/07/05 17:01:09;;;;;;;9.05;6.40;;;;;;;;;;6145491;23;20080;-67
2023/07/05 17:03:41;;;;;;;7.75;6.07;;;;;;;;;;6146235;23;20308;-68
2023/07/05 17:06:10;;;;;;;9.82;5.45;;;;;;;;;;6145756;23;20096;-68
2023/07/05 17:08:38;;;;;;;7.18;5.60;;;;;;;;;;6146041;23;20010;-68
2023/07/05 17:11:06;;;;;;;9.75;5.22;;;;;;;;;;6146487;23;20347;-67
2023/07/05 17:13:34;;;;;;;9.75;5.63;;;;;;;;;;6146284;23;20418;-68
2023/07/05 17:16:00;;;;;;;7.70;6.15;;;;;;;;;;6144751;23;20020;-69
2023/07/05 17:18:27;;;;;;;13.38;6.05;;;;;;;;;;6119264;23;20012;-69
2023/07/05 17:21:00;;;;;;;11.05;6.35;;;;;;;;;;6146950;22;20018;-72
2023/07/05 17:23:26;;;;;;;12.07;6.65;;;;;;;;;;6096303;23;20104;-69
2023/07/05 17:25:59;;;;;;;9.05;6.78;;;;;;;;;;6145840;23;20051;-71
2023/07/05 17:28:29;;;;;;;10.80;7.00;;;;;;;;;;6146653;23;20045;-70
2023/07/05 17:31:06;;;;;;;13.65;6.53;;;;;;;;;;6168945;23;20073;-70
2023/07/05 17:33:35;;;;;;;9.73;6.45;;;;;;;;;;6145920;23;20020;-69
2023/07/05 17:36:02;;;;;;;10.02;6.50;;;;;;;;;;6146381;23;20029;-69
2023/07/05 17:38:30;;;;;;;9.13;6.88;;;;;;;;;;6145816;23;20009;-69
2023/07/05 17:40:55;;;;;;;14.18;6.80;;;;;;;;;;6145412;23;20356;-68
2023/07/05 17:43:21;;;;;;;10.45;6.50;;;;;;;;;;6146090;23;20524;-69
2023/07/05 17:45:47;;;;;;;11.73;6.20;;;;;;;;;;6145989;23;20287;-69
2023/07/05 17:48:13;;;;;;;10.57;6.32;;;;;;;;;;6147064;23;20017;-68
2023/07/05 17:50:39;;;;;;;17.90;6.53;;;;;;;;;;6148434;22;20079;-69
2023/07/05 17:53:06;;;;;;;14.32;6.97;;;;;;;;;;6146553;23;20012;-68
2023/07/05 17:55:33;;;;;;;10.82;6.63;;;;;;;;;;6145597;23;20009;-69
2023/07/05 17:58:00;;;;;;;12.98;6.00;;;;;;;;;;6148058;23;20078;-68
2023/07/05 18:00:27;;;;;;;12.43;6.10;;;;;;;;;;6148584;23;20044;-69
2023/07/05 18:02:53;;;;;;;8.32;6.30;;;;;;;;;;6148431;23;20005;-68
2023/07/05 18:05:18;;;;;;;15.07;6.32;;;;;;;;;;6149303;23;20012;-68
2023/07/05 18:07:44;;;;;;;13.20;6.82;;;;;;;;;;6148323;23;20355;-68
2023/07/05 18:10:11;;;;;;;11.20;6.18;;;;;;;;;;6149229;23;20035;-68
2023/07/05 18:12:37;;;;;;;15.98;7.05;;;;;;;;;;6149035;23;20359;-69
2023/07/05 18:15:04;;;;;;;8.50;6.10;;;;;;;;;;6147682;23;19997;-69
2023/07/05 18:17:32;;;;;;;11.63;7.03;;;;;;;;;;6172160;23;20013;-68
2023/07/05 18:19:59;;;;;;;10.13;6.20;;;;;;;;;;6123387;23;20001;-70
2023/07/05 18:22:25;;;;;;;10.73;6.43;;;;;;;;;;6148438;23;20082;-68
2023/07/05 18:24:51;;;;;;;9.60;6.18;;;;;;;;;;6149351;23;20114;-70
2023/07/05 18:27:17;;;;;;;9.10;6.07;;;;;;;;;;6148931;23;20015;-70
2023/07/05 18:29:42;;;;;;;10.02;6.88;;;;;;;;;;6147311;22;20036;-69
2023/07/05 18:32:09;;;;;;;10.68;7.35;;;;;;;;;;6148853;23;20082;-70
2023/07/05 18:34:36;;;;;;;11.93;6.53;;;;;;;;;;6148415;23;20037;-70
2023/07/05 18:37:02;;;;;;;11.60;6.45;;;;;;;;;;6121269;23;20005;-69
2023/07/05 18:39:28;;;;;;;12.13;6.25;;;;;;;;;;6148726;23;20430;-71
2023/07/05 18:41:54;;;;;;;11.18;5.95;;;;;;;;;;6148997;23;20008;-70
2023/07/05 18:44:20;;;;;;;12.75;7.40;;;;;;;;;;6148462;23;20017;-69
2023/07/05 18:46:46;;;;;;;11.20;7.07;;;;;;;;;;6148407;23;20021;-69
2023/07/05 18:49:13;;;;;;;8.77;6.07;;;;;;;;;;6147623;23;19997;-67
2023/07/05 18:51:39;;;;;;;10.43;6.22;;;;;;;;;;6148665;23;20019;-67
2023/07/05 18:54:05;;;;;;;11.95;6.45;;;;;;;;;;6172226;23;20025;-67
2023/07/05 18:56:31;;;;;;;8.45;5.80;;;;;;;;;;6147179;23;20096;-66
2023/07/05 18:58:59;;;;;;;10.65;6.13;;;;;;;;;;6148786;22;20037;-67
2023/07/05 19:01:26;;;;;;;9.90;5.95;;;;;;;;;;6149018;23;20006;-67
2023/07/05 19:03:51;;;;;;;10.73;5.72;;;;;;;;;;6148611;23;20100;-67
2023/07/05 19:06:20;;;;;;;7.38;6.07;;;;;;;;;;6147368;23;20455;-67
2023/07/05 19:08:49;;;;;;;8.35;5.75;;;;;;;;;;6171961;23;20029;-67
2023/07/05 19:11:26;;;;;;;9.55;6.35;;;;;;;;;;6149253;23;20017;-67
2023/07/05 19:13:53;;;;;;;11.05;6.18;;;;;;;;;;6148023;23;20020;-66
2023/07/05 19:16:21;;;;;;;9.10;6.43;;;;;;;;;;6171802;23;20005;-67
2023/07/05 19:18:47;;;;;;;9.63;5.97;;;;;;;;;;6147640;23;20066;-67
2023/07/05 19:21:14;;;;;;;8.48;5.60;;;;;;;;;;6148040;23;19994;-67
2023/07/05 19:23:40;;;;;;;10.82;6.25;;;;;;;;;;6148629;23;20035;-67
2023/07/05 19:26:08;;;;;;;12.23;6.15;;;;;;;;;;6147491;23;20076;-67
2023/07/05 19:28:35;;;;;;;7.43;5.13;;;;;;;;;;6148391;23;20013;-68
2023/07/05 19:31:13;;;;;;;7.72;5.35;;;;;;;;;;6148332;23;20013;-68
2023/07/05 19:33:41;;;;;;;10.15;6.40;;;;;;;;;;6148847;23;20439;-68
2023/07/05 19:36:07;;;;;;;10.30;6.05;;;;;;;;;;6146238;23;20006;-67
2023/07/05 19:38:33;;;;;;;11.23;7.07;;;;;;;;;;6122140;23;20073;-68
2023/07/05 19:40:59;;;;;;;15.63;7.95;;;;;;;;;;6149085;23;20005;-67
2023/07/05 19:43:26;;;;;;;11.00;8.02;;;;;;;;;;6148380;23;20059;-69
2023/07/05 19:45:52;;;;;;;12.00;7.80;;;;;;;;;;6148286;23;20001;-68
2023/07/05 19:48:19;;;;;;;9.45;7.50;;;;;;;;;;6145207;23;20101;-67
2023/07/05 19:50:45;;;;;;;11.43;7.82;;;;;;;;;;6145891;23;20308;-67
2023/07/05 19:53:11;;;;;;;16.48;7.10;;;;;;;;;;6145980;23;20084;-67
2023/07/05 19:55:38;;;;;;;14.50;7.90;;;;;;;;;;6146206;23;20001;-67
2023/07/05 19:58:05;;;;;;;10.00;7.00;;;;;;;;;;6145254;23;20618;-67
2023/07/05 20:00:33;;;;;;;10.52;7.07;;;;;;;;;;6145828;23;20378;-67
2023/07/05 20:03:03;;;;;;;12.38;7.50;;;;;;;;;;6145647;23;20445;-68
2023/07/05 20:05:33;;;;;;;11.98;6.80;;;;;;;;;;6143621;23;20336;-67
2023/07/05 20:08:00;;;;;;;13.45;7.50;;;;;;;;;;6144411;23;20013;-67
2023/07/05 20:10:27;;;;;;;12.05;7.05;;;;;;;;;;6145891;23;20080;-68
2023/07/05 20:12:53;;;;;;;13.38;7.70;;;;;;;;;;6144576;23;20112;-66
2023/07/05 20:15:19;;;;;;;15.90;8.43;;;;;;;;;;6145842;23;20006;-67
2023/07/05 20:17:45;;;;;;;13.25;7.97;;;;;;;;;;6145521;23;20013;-67
2023/07/05 20:20:11;;;;;;;9.50;7.00;;;;;;;;;;6147067;23;20013;-68
2023/07/05 20:22:38;;;;;;;9.23;6.65;;;;;;;;;;6116666;23;20006;-68
2023/07/05 20:25:04;;;;;;;14.25;8.25;;;;;;;;;;6144514;23;20010;-69
2023/07/05 20:27:30;;;;;;;13.30;7.43;;;;;;;;;;6144107;23;20010;-68
2023/07/05 20:29:55;;;;;;;15.20;7.47;;;;;;;;;;6145318;23;20016;-69
2023/07/05 20:32:22;;;;;;;10.60;6.57;;;;;;;;;;6141797;23;20055;-67
2023/07/05 20:34:48;;;;;;;10.77;6.88;;;;;;;;;;6145702;23;20017;-67
2023/07/05 20:37:15;;;;;;;12.65;7.35;;;;;;;;;;6145222;23;20022;-67
2023/07/05 20:39:41;;;;;;;10.30;7.22;;;;;;;;;;6145146;22;20002;-67
2023/07/05 20:42:07;;;;;;;12.20;7.82;;;;;;;;;;6145777;23;20512;-67
2023/07/05 20:44:33;;;;;;;13.20;7.75;;;;;;;;;;6145741;23;20439;-67
2023/07/05 20:46:59;;;;;;;11.07;7.28;;;;;;;;;;6145161;23;20017;-68
2023/07/05 20:49:25;;;;;;;14.43;7.80;;;;;;;;;;6146175;23;20454;-67
2023/07/05 20:51:54;;;;;;;14.23;7.30;;;;;;;;;;6147841;23;20045;-68
2023/07/05 20:54:20;;;;;;;10.88;7.47;;;;;;;;;;6120578;23;20009;-68
2023/07/05 20:56:47;;;;;;;11.32;6.95;;;;;;;;;;6120404;23;20078;-67
2023/07/05 20:59:13;;;;;;;9.65;7.40;;;;;;;;;;6148622;23;20001;-67
2023/07/05 21:01:40;;;;;;;15.13;8.32;;;;;;;;;;6148900;23;20419;-67
2023/07/05 21:04:06;;;;;;;15.60;8.73;;;;;;;;;;6149513;23;20431;-67
2023/07/05 21:06:35;;;;;;;16.52;8.77;;;;;;;;;;6148931;23;20018;-67